Time;durP1;ratioP1;P1;durP2;ratioP2;P2;SDS_P1;SDS_P2;PMS_P1;PMS_P2;Temp;Humidity;BMP_temperature;BMP_pressure;BME280_temperature;BME280_humidity;BME280_pressure;Samples;Min_cycle;Max_cycle;Signal;HPM_P1;HPM_P2
2022/11/13 00:00:20;;;;;;;13.13;9.18;;;8.20;99.90;;;;;;5050291;28;20195;-67
2022/11/13 00:02:48;;;;;;;11.80;9.63;;;8.20;99.90;;;;;;5050981;28;20222;-68
2022/11/13 00:05:15;;;;;;;9.65;8.50;;;8.20;99.90;;;;;;5054454;28;20218;-67
2022/11/13 00:07:42;;;;;;;14.10;10.20;;;8.20;99.90;;;;;;5054410;28;20190;-68
2022/11/13 00:10:09;;;;;;;13.07;8.90;;;8.30;99.90;;;;;;5054342;28;20217;-68
2022/11/13 00:12:36;;;;;;;20.10;9.27;;;8.20;99.90;;;;;;5053850;28;20240;-68
2022/11/13 00:15:04;;;;;;;13.23;9.88;;;8.20;99.90;;;;;;5050025;28;20229;-68
2022/11/13 00:17:31;;;;;;;10.70;9.57;;;8.20;99.90;;;;;;5055735;28;20230;-68
2022/11/13 00:20:01;;;;;;;10.88;8.98;;;8.20;99.90;;;;;;5055693;28;20195;-67
2022/11/13 00:22:28;;;;;;;11.48;9.88;;;8.20;99.90;;;;;;5055799;28;20186;-67
2022/11/13 00:24:54;;;;;;;9.85;8.82;;;8.20;99.90;;;;;;5055400;28;20742;-67
2022/11/13 00:27:21;;;;;;;10.00;8.75;;;8.20;99.90;;;;;;5055487;28;20190;-66
2022/11/13 00:29:49;;;;;;;11.52;8.65;;;8.20;99.90;;;;;;5055313;28;20191;-67
2022/11/13 00:32:16;;;;;;;10.63;8.65;;;8.20;99.90;;;;;;5055532;28;20194;-66
2022/11/13 00:34:43;;;;;;;10.35;7.90;;;8.20;99.90;;;;;;5055246;28;20195;-67
2022/11/13 00:37:11;;;;;;;9.68;8.70;;;8.20;99.90;;;;;;5054959;28;20221;-66
2022/11/13 00:39:38;;;;;;;9.75;7.70;;;8.20;99.90;;;;;;5055333;28;20252;-67
2022/11/13 00:42:05;;;;;;;9.25;8.27;;;8.20;99.90;;;;;;5055349;28;20201;-66
2022/11/13 00:44:32;;;;;;;18.55;8.95;;;8.20;99.90;;;;;;5054714;28;20307;-67
2022/11/13 00:47:00;;;;;;;9.65;8.25;;;8.20;99.90;;;;;;5055263;28;20190;-67
2022/11/13 00:49:27;;;;;;;13.32;9.98;;;8.20;99.70;;;;;;5055076;28;20196;-68
2022/11/13 00:51:54;;;;;;;13.38;8.07;;;8.20;99.60;;;;;;5054949;28;20248;-67
2022/11/13 00:54:22;;;;;;;8.77;7.85;;;8.10;99.40;;;;;;5054576;28;20265;-68
2022/11/13 00:56:49;;;;;;;9.85;7.55;;;8.20;99.50;;;;;;5054979;28;20194;-67
2022/11/13 00:59:16;;;;;;;10.20;8.55;;;8.10;99.60;;;;;;5054845;28;20193;-68
2022/11/13 01:01:43;;;;;;;10.45;7.95;;;8.10;99.50;;;;;;5054998;28;20236;-67
2022/11/13 01:04:10;;;;;;;7.78;6.95;;;8.10;99.30;;;;;;5054499;28;20268;-67
2022/11/13 01:06:37;;;;;;;8.82;7.50;;;8.10;99.20;;;;;;5054608;28;20195;-67
2022/11/13 01:09:05;;;;;;;7.78;7.00;;;8.00;99.30;;;;;;5054803;28;20244;-67
2022/11/13 01:11:33;;;;;;;10.75;7.50;;;8.00;99.40;;;;;;5054647;28;20403;-67
2022/11/13 01:14:00;;;;;;;9.48;8.02;;;8.00;99.40;;;;;;5053917;28;20247;-66
2022/11/13 01:16:28;;;;;;;12.20;7.63;;;8.00;99.50;;;;;;5054384;28;20546;-67
2022/11/13 01:18:56;;;;;;;8.93;7.95;;;8.00;99.50;;;;;;5054423;28;20548;-67
2022/11/13 01:21:26;;;;;;;8.40;7.57;;;8.00;99.50;;;;;;5054422;28;20195;-66
2022/11/13 01:23:53;;;;;;;7.43;6.72;;;8.00;99.60;;;;;;5054290;28;20306;-67
2022/11/13 01:26:22;;;;;;;10.65;7.95;;;8.00;99.70;;;;;;5054426;28;20277;-66
2022/11/13 01:28:51;;;;;;;8.43;7.57;;;8.00;99.90;;;;;;5054387;28;20186;-67
2022/11/13 01:31:20;;;;;;;9.82;7.20;;;8.00;99.90;;;;;;5054324;28;20191;-67
2022/11/13 01:33:48;;;;;;;9.18;7.53;;;8.00;99.90;;;;;;5053729;28;20644;-67
2022/11/13 01:36:17;;;;;;;7.45;6.72;;;8.00;99.80;;;;;;5054334;28;20243;-67
2022/11/13 01:38:45;;;;;;;14.45;7.60;;;8.00;99.70;;;;;;5054398;28;20198;-67
2022/11/13 01:41:17;;;;;;;8.85;7.40;;;8.00;99.70;;;;;;5054140;28;20226;-67
2022/11/13 01:43:44;;;;;;;10.20;7.85;;;8.00;99.80;;;;;;5053825;28;20260;-67
2022/11/13 01:46:24;;;;;;;21.63;9.05;;;8.00;99.50;;;;;;5054231;28;20190;-67
2022/11/13 01:48:56;;;;;;;9.88;8.88;;;8.00;99.60;;;;;;5054022;28;20202;-67
2022/11/13 01:51:28;;;;;;;10.10;7.60;;;8.00;99.80;;;;;;5053916;28;20263;-68
2022/11/13 01:53:57;;;;;;;10.25;8.52;;;8.00;99.80;;;;;;5053694;28;20195;-68
2022/11/13 01:56:24;;;;;;;9.95;7.40;;;7.90;99.60;;;;;;5053713;28;20194;-68
2022/11/13 01:58:58;;;;;;;10.38;7.93;;;7.90;99.70;;;;;;5053433;28;20221;-68
2022/11/13 02:01:26;;;;;;;8.07;7.25;;;7.90;99.90;;;;;;5053600;28;20285;-68
2022/11/13 02:03:53;;;;;;;8.73;7.60;;;7.90;99.90;;;;;;5053309;28;20630;-68
2022/11/13 02:06:21;;;;;;;8.50;7.15;;;7.90;99.90;;;;;;5053696;28;20226;-68
2022/11/13 02:08:51;;;;;;;15.38;8.13;;;7.90;99.90;;;;;;5053855;28;20217;-67
2022/11/13 02:11:18;;;;;;;8.40;6.50;;;7.90;99.90;;;;;;5053446;28;20198;-68
2022/11/13 02:13:46;;;;;;;8.50;7.07;;;7.90;99.60;;;;;;5053403;28;20236;-68
2022/11/13 02:16:13;;;;;;;7.75;6.95;;;7.90;99.60;;;;;;5053477;28;20194;-67
2022/11/13 02:18:42;;;;;;;8.10;7.30;;;7.90;99.80;;;;;;5053374;28;20590;-67
2022/11/13 02:21:31;;;;;;;7.07;6.15;;;7.90;99.90;;;;;;5052959;28;20248;-67
2022/11/13 02:24:05;;;;;;;10.05;7.70;;;7.90;99.90;;;;;;5052797;28;20209;-67
2022/11/13 02:26:35;;;;;;;8.30;6.60;;;7.90;99.90;;;;;;5052610;28;20229;-67
2022/11/13 02:29:02;;;;;;;8.50;6.82;;;7.90;99.80;;;;;;5052827;28;20201;-67
2022/11/13 02:31:29;;;;;;;10.73;6.57;;;7.90;99.90;;;;;;5053277;28;20190;-67
2022/11/13 02:33:56;;;;;;;8.55;6.93;;;7.90;99.60;;;;;;5053171;28;20611;-68
2022/11/13 02:36:25;;;;;;;10.18;7.47;;;7.90;99.60;;;;;;5053237;28;20251;-67
2022/11/13 02:38:54;;;;;;;8.73;7.25;;;7.80;99.60;;;;;;5053109;28;20198;-68
2022/11/13 02:41:20;;;;;;;9.05;6.90;;;7.80;99.60;;;;;;5053108;28;20190;-67
2022/11/13 02:43:49;;;;;;;8.38;7.15;;;7.80;99.80;;;;;;5052826;28;20244;-68
2022/11/13 02:46:16;;;;;;;8.38;6.75;;;7.80;99.80;;;;;;5053048;28;20194;-67
2022/11/13 02:48:43;;;;;;;8.18;7.05;;;7.80;99.90;;;;;;5052826;28;20198;-67
2022/11/13 02:51:10;;;;;;;6.88;6.00;;;7.80;99.80;;;;;;5052949;28;20226;-67
2022/11/13 02:53:37;;;;;;;7.53;6.68;;;7.80;99.80;;;;;;5052700;28;20194;-67
2022/11/13 02:56:05;;;;;;;8.00;7.25;;;7.80;99.60;;;;;;5052812;28;20544;-67
2022/11/13 02:58:32;;;;;;;7.75;7.03;;;7.80;99.50;;;;;;5052419;28;20244;-67
2022/11/13 03:01:03;;;;;;;7.88;6.75;;;7.80;99.50;;;;;;5052721;28;20193;-67
2022/11/13 03:03:30;;;;;;;6.97;6.28;;;7.80;99.70;;;;;;5052220;28;20226;-67
2022/11/13 03:05:57;;;;;;;10.18;6.70;;;7.80;99.60;;;;;;5052540;28;20549;-68
2022/11/13 03:08:24;;;;;;;10.77;8.40;;;7.70;99.80;;;;;;5052458;28;20267;-68
2022/11/13 03:10:51;;;;;;;5.90;5.30;;;7.70;99.60;;;;;;5052408;28;20190;-67
2022/11/13 03:13:18;;;;;;;6.30;5.47;;;7.70;99.50;;;;;;5052602;28;20194;-68
2022/11/13 03:15:45;;;;;;;5.47;4.93;;;7.70;99.50;;;;;;5052672;28;20613;-66
2022/11/13 03:18:14;;;;;;;6.35;5.28;;;7.70;99.40;;;;;;5052623;28;20233;-67
2022/11/13 03:20:43;;;;;;;6.60;5.90;;;7.70;99.30;;;;;;5052651;28;20233;-67
2022/11/13 03:23:10;;;;;;;6.50;5.35;;;7.70;99.10;;;;;;5052541;28;20190;-68
2022/11/13 03:25:37;;;;;;;7.03;5.70;;;7.70;99.00;;;;;;5052436;28;20260;-67
2022/11/13 03:28:04;;;;;;;7.85;5.63;;;7.70;98.90;;;;;;5052438;28;20200;-67
2022/11/13 03:30:31;;;;;;;8.70;5.78;;;7.70;98.80;;;;;;5052218;28;20676;-66
2022/11/13 03:32:58;;;;;;;6.90;5.40;;;7.70;98.70;;;;;;5052160;28;20190;-67
2022/11/13 03:35:28;;;;;;;6.55;5.35;;;7.60;98.70;;;;;;5052011;28;20190;-67
2022/11/13 03:37:55;;;;;;;6.60;5.57;;;7.60;98.50;;;;;;5055066;28;20198;-67
2022/11/13 03:40:22;;;;;;;7.65;5.28;;;7.50;98.70;;;;;;5056039;28;20187;-67
2022/11/13 03:42:49;;;;;;;7.05;5.10;;;7.50;98.20;;;;;;5056307;28;20190;-67
2022/11/13 03:45:16;;;;;;;5.40;4.72;;;7.50;98.20;;;;;;5056207;28;20229;-66
2022/11/13 03:47:43;;;;;;;5.78;5.10;;;7.50;98.10;;;;;;5056218;28;20190;-66
2022/11/13 03:50:10;;;;;;;6.18;5.32;;;7.40;97.90;;;;;;5055961;28;20190;-66
2022/11/13 03:52:38;;;;;;;5.88;5.28;;;7.40;97.90;;;;;;5056170;28;20637;-66
2022/11/13 03:55:06;;;;;;;6.55;4.97;;;7.30;97.90;;;;;;5056088;28;20218;-66
2022/11/13 03:57:33;;;;;;;11.38;4.82;;;7.30;98.20;;;;;;5055904;28;20225;-66
2022/11/13 04:00:00;;;;;;;9.20;5.50;;;7.30;98.50;;;;;;5055761;28;20191;-66
2022/11/13 04:02:27;;;;;;;11.50;6.40;;;7.20;98.20;;;;;;5055917;28;20190;-67
2022/11/13 04:04:54;;;;;;;7.22;5.40;;;7.10;98.30;;;;;;5055634;28;20206;-67
2022/11/13 04:07:21;;;;;;;7.40;5.72;;;7.10;98.60;;;;;;5055812;28;20594;-67
2022/11/13 04:09:50;;;;;;;8.45;5.82;;;6.90;99.00;;;;;;5056002;28;20191;-66
2022/11/13 04:12:16;;;;;;;7.63;5.90;;;6.80;99.50;;;;;;5055800;28;20240;-68
2022/11/13 04:14:44;;;;;;;7.45;6.22;;;6.70;99.90;;;;;;5055729;28;20190;-66
2022/11/13 04:17:11;;;;;;;14.05;6.35;;;6.60;99.90;;;;;;5055898;28;20240;-67
2022/11/13 04:19:38;;;;;;;12.00;5.90;;;6.60;99.90;;;;;;5055774;28;20244;-66
2022/11/13 04:22:05;;;;;;;6.63;5.93;;;6.60;99.90;;;;;;5055245;28;20209;-67
2022/11/13 04:24:32;;;;;;;17.90;6.45;;;6.50;99.90;;;;;;5055611;28;20210;-67
2022/11/13 04:27:00;;;;;;;6.35;4.70;;;6.50;99.90;;;;;;5055570;28;20206;-67
2022/11/13 04:29:27;;;;;;;6.90;5.40;;;6.50;99.90;;;;;;5055622;28;20593;-67
2022/11/13 04:31:54;;;;;;;8.38;5.30;;;6.40;99.90;;;;;;5055029;28;20214;-67
2022/11/13 04:34:21;;;;;;;9.23;5.60;;;6.50;99.90;;;;;;5055049;28;20190;-68
2022/11/13 04:36:48;;;;;;;8.82;4.40;;;6.50;99.90;;;;;;5055349;28;20256;-68
2022/11/13 04:39:15;;;;;;;7.70;5.00;;;6.50;99.90;;;;;;5055481;28;20923;-67
2022/11/13 04:44:28;;;;;;;5.90;5.03;;;6.50;99.90;;;;;;5055243;28;20189;-67
2022/11/13 04:46:57;;;;;;;12.45;5.55;;;6.50;99.90;;;;;;5055380;28;20195;-68
2022/11/13 04:49:24;;;;;;;6.60;4.57;;;6.50;99.90;;;;;;5054099;28;20190;-68
2022/11/13 04:51:51;;;;;;;5.28;4.50;;;6.50;99.90;;;;;;5055284;28;20191;-67
2022/11/13 04:54:18;;;;;;;9.05;6.03;;;6.40;99.90;;;;;;5055027;28;20190;-67
2022/11/13 04:56:45;;;;;;;8.02;4.50;;;6.40;99.90;;;;;;5054966;28;20224;-67
2022/11/13 04:59:12;;;;;;;7.47;4.93;;;6.40;99.90;;;;;;5055107;28;20248;-67
2022/11/13 05:01:41;;;;;;;7.55;4.72;;;6.30;99.90;;;;;;5055199;28;20244;-67
2022/11/13 05:04:11;;;;;;;6.72;5.15;;;6.30;99.90;;;;;;5054771;28;20230;-67
2022/11/13 05:06:37;;;;;;;6.60;5.35;;;6.30;99.90;;;;;;5037158;28;20218;-67
2022/11/13 05:09:05;;;;;;;8.38;4.65;;;6.40;99.90;;;;;;5054437;28;20257;-66
2022/11/13 05:11:32;;;;;;;5.93;4.90;;;6.40;99.90;;;;;;5054920;28;20194;-67
2022/11/13 05:13:59;;;;;;;5.68;5.10;;;6.50;99.90;;;;;;5054629;28;20194;-67
2022/11/13 05:16:26;;;;;;;8.98;4.18;;;6.50;99.90;;;;;;5054255;28;20248;-67
2022/11/13 05:18:54;;;;;;;7.03;4.40;;;6.50;99.90;;;;;;5054678;28;20237;-67
2022/11/13 05:21:22;;;;;;;5.07;4.32;;;6.50;99.30;;;;;;5054384;28;20252;-67
2022/11/13 05:23:49;;;;;;;6.20;4.20;;;6.50;99.30;;;;;;5054516;28;20191;-68
2022/11/13 05:26:16;;;;;;;5.18;4.10;;;6.50;98.90;;;;;;5054711;28;20749;-67
2022/11/13 05:28:43;;;;;;;5.25;4.75;;;6.50;98.70;;;;;;5054439;28;20186;-67
2022/11/13 05:31:12;;;;;;;7.25;4.38;;;6.50;98.70;;;;;;5054773;28;20218;-67
2022/11/13 05:33:40;;;;;;;10.32;4.85;;;6.50;98.70;;;;;;5054450;28;20186;-66
2022/11/13 05:36:10;;;;;;;6.05;4.57;;;6.50;98.20;;;;;;5054451;28;20198;-67
2022/11/13 05:38:38;;;;;;;7.45;5.00;;;6.40;98.30;;;;;;5054344;28;20198;-67
2022/11/13 05:41:06;;;;;;;5.10;4.53;;;6.40;98.50;;;;;;5054437;28;20202;-67
2022/11/13 05:43:34;;;;;;;5.00;4.45;;;6.40;98.40;;;;;;5054086;28;20194;-67
2022/11/13 05:46:03;;;;;;;7.15;4.20;;;6.40;98.60;;;;;;5054134;28;20229;-66
2022/11/13 05:48:30;;;;;;;5.00;4.50;;;6.40;98.50;;;;;;5054253;28;20201;-67
2022/11/13 05:51:01;;;;;;;6.47;4.40;;;6.40;98.10;;;;;;5054319;28;20197;-67
2022/11/13 05:53:32;;;;;;;5.80;5.00;;;6.30;98.20;;;;;;5054037;28;20222;-67
2022/11/13 05:56:03;;;;;;;5.75;4.82;;;6.30;98.20;;;;;;5054381;28;20193;-68
2022/11/13 05:58:34;;;;;;;5.20;4.60;;;6.20;98.30;;;;;;5054195;28;20263;-67
2022/11/13 06:01:12;;;;;;;8.50;4.28;;;6.30;98.50;;;;;;5053802;28;20190;-67
2022/11/13 06:03:39;;;;;;;5.25;4.65;;;6.30;98.70;;;;;;5054058;28;20269;-67
2022/11/13 06:06:07;;;;;;;8.95;4.55;;;6.30;98.60;;;;;;5054178;28;20291;-67
2022/11/13 06:08:36;;;;;;;6.40;5.43;;;6.30;98.80;;;;;;5053911;28;20222;-67
2022/11/13 06:11:05;;;;;;;9.25;7.28;;;6.30;98.60;;;;;;5053472;28;20198;-67
2022/11/13 06:13:32;;;;;;;16.50;6.03;;;6.30;98.50;;;;;;5053644;28;20190;-66
2022/11/13 06:16:01;;;;;;;8.98;5.05;;;6.30;98.30;;;;;;5053636;28;20645;-67
2022/11/13 06:18:29;;;;;;;6.32;4.10;;;6.20;98.60;;;;;;5053747;28;20190;-67
2022/11/13 06:21:01;;;;;;;6.30;4.50;;;6.10;98.80;;;;;;5053375;28;20205;-67
2022/11/13 06:23:28;;;;;;;8.40;5.00;;;6.10;99.10;;;;;;5053704;28;20187;-67
2022/11/13 06:26:02;;;;;;;8.40;4.15;;;6.10;99.10;;;;;;5053518;28;20284;-66
2022/11/13 06:28:29;;;;;;;5.60;4.40;;;5.90;99.10;;;;;;5053546;28;20268;-66
2022/11/13 06:30:56;;;;;;;8.88;4.95;;;5.80;99.80;;;;;;5053090;28;20229;-67
2022/11/13 06:33:23;;;;;;;7.53;5.00;;;5.80;99.90;;;;;;5053481;28;20186;-67
2022/11/13 06:35:50;;;;;;;7.55;5.03;;;5.70;99.90;;;;;;5053466;28;20277;-66
2022/11/13 06:38:17;;;;;;;9.50;4.95;;;5.70;99.90;;;;;;5053340;28;20262;-67
2022/11/13 06:40:44;;;;;;;7.97;5.35;;;5.70;99.90;;;;;;5052971;28;20225;-66
2022/11/13 06:43:13;;;;;;;5.55;4.10;;;5.60;99.90;;;;;;5053342;28;20195;-66
2022/11/13 06:45:40;;;;;;;6.13;5.10;;;5.70;99.90;;;;;;5053077;28;20269;-66
2022/11/13 06:48:07;;;;;;;6.28;4.72;;;5.70;99.90;;;;;;5053051;28;20230;-65
2022/11/13 06:50:34;;;;;;;10.25;5.50;;;5.70;99.90;;;;;;5053301;28;20186;-66
2022/11/13 06:53:01;;;;;;;5.63;4.43;;;5.70;99.90;;;;;;5053258;28;20194;-67
2022/11/13 06:55:29;;;;;;;9.07;5.88;;;5.70;99.90;;;;;;5052773;28;20195;-67
2022/11/13 06:57:56;;;;;;;6.20;4.45;;;5.70;99.90;;;;;;5053202;28;20256;-67
2022/11/13 07:00:24;;;;;;;6.22;4.75;;;5.60;99.90;;;;;;5052848;28;20191;-67
2022/11/13 07:02:51;;;;;;;8.50;7.70;;;5.60;99.90;;;;;;5052960;28;20222;-67
2022/11/13 07:05:18;;;;;;;5.00;4.40;;;5.80;99.90;;;;;;5052852;28;20253;-67
2022/11/13 07:07:45;;;;;;;8.05;5.35;;;5.80;99.90;;;;;;5053085;28;20259;-67
2022/11/13 07:10:12;;;;;;;7.00;5.10;;;5.90;99.90;;;;;;5052836;28;20222;-67
2022/11/13 07:12:40;;;;;;;7.82;4.90;;;5.80;99.90;;;;;;5052252;28;20608;-66
2022/11/13 07:15:10;;;;;;;7.97;5.53;;;5.90;99.90;;;;;;5052428;28;20691;-67
2022/11/13 07:17:39;;;;;;;6.55;4.35;;;6.00;99.90;;;;;;5052894;28;20252;-66
2022/11/13 07:20:07;;;;;;;5.88;4.18;;;6.10;99.50;;;;;;5052893;28;20221;-68
2022/11/13 07:22:34;;;;;;;6.22;4.60;;;6.10;99.60;;;;;;5052665;28;20198;-67
2022/11/13 07:25:01;;;;;;;7.10;4.60;;;6.00;99.30;;;;;;5052546;28;20722;-66
2022/11/13 07:27:28;;;;;;;8.90;4.65;;;5.90;99.00;;;;;;5052646;28;20716;-68
2022/11/13 07:29:55;;;;;;;8.20;5.25;;;5.90;99.20;;;;;;5052681;28;20195;-67
2022/11/13 07:32:22;;;;;;;5.70;5.10;;;5.90;99.30;;;;;;5052499;28;20197;-67
2022/11/13 07:34:50;;;;;;;7.10;4.85;;;5.90;99.60;;;;;;5052445;28;20190;-67
2022/11/13 07:37:17;;;;;;;6.85;6.15;;;5.90;99.60;;;;;;5052305;28;20190;-68
2022/11/13 07:39:45;;;;;;;7.70;5.68;;;5.90;99.50;;;;;;5052523;28;20186;-67
2022/11/13 07:42:12;;;;;;;5.65;4.50;;;5.90;99.40;;;;;;5052600;28;20194;-67
2022/11/13 07:44:39;;;;;;;5.25;3.75;;;6.00;99.40;;;;;;5052482;28;20205;-67
2022/11/13 07:47:06;;;;;;;6.18;4.35;;;6.00;99.20;;;;;;5052303;28;20271;-67
2022/11/13 07:49:33;;;;;;;7.00;4.68;;;6.00;99.20;;;;;;5052260;28;20194;-67
2022/11/13 07:52:01;;;;;;;5.75;4.80;;;6.10;99.30;;;;;;5052507;28;20252;-67
2022/11/13 07:54:28;;;;;;;5.93;4.90;;;6.10;99.30;;;;;;5052312;28;20226;-67
2022/11/13 07:56:55;;;;;;;6.07;4.88;;;6.10;99.20;;;;;;5052239;28;20248;-67
2022/11/13 07:59:22;;;;;;;8.45;5.43;;;6.10;98.90;;;;;;5051517;28;20244;-69
2022/11/13 08:01:51;;;;;;;26.50;17.15;;;6.10;99.20;;;;;;5043362;28;20186;-67
2022/11/13 08:04:19;;;;;;;21.40;17.17;;;6.10;99.30;;;;;;5049702;28;20214;-67
2022/11/13 08:06:46;;;;;;;11.80;9.43;;;6.20;99.00;;;;;;5048678;28;20261;-67
2022/11/13 08:09:14;;;;;;;7.10;5.15;;;6.20;99.00;;;;;;5049781;28;20195;-68
2022/11/13 08:11:42;;;;;;;6.30;4.70;;;6.30;98.80;;;;;;5050091;28;20236;-67
2022/11/13 08:14:10;;;;;;;5.43;4.38;;;6.30;98.70;;;;;;5049456;28;20604;-67
2022/11/13 08:16:37;;;;;;;5.57;4.60;;;6.40;98.50;;;;;;5045339;28;20252;-68
2022/11/13 08:19:05;;;;;;;6.18;4.60;;;6.40;98.60;;;;;;5049520;28;21400;-67
2022/11/13 08:21:32;;;;;;;8.52;5.18;;;6.40;98.40;;;;;;5049463;28;20242;-67
2022/11/13 08:23:59;;;;;;;7.25;5.25;;;6.40;98.30;;;;;;5050504;28;20598;-68
2022/11/13 08:26:28;;;;;;;6.82;5.20;;;6.40;98.70;;;;;;5053568;28;20301;-67
2022/11/13 08:28:56;;;;;;;15.63;12.98;;;6.50;98.30;;;;;;5053193;28;20281;-68
2022/11/13 08:31:26;;;;;;;13.77;11.25;;;6.50;98.40;;;;;;5053068;28;20233;-67
2022/11/13 08:33:53;;;;;;;8.18;6.32;;;6.60;98.50;;;;;;5048809;28;20308;-67
2022/11/13 08:36:20;;;;;;;10.02;7.72;;;6.60;98.30;;;;;;5052962;28;20216;-69
2022/11/13 08:38:48;;;;;;;10.98;8.35;;;6.70;98.40;;;;;;5053237;28;20190;-67
2022/11/13 08:41:15;;;;;;;11.10;7.90;;;6.70;98.30;;;;;;5052751;28;20193;-68
2022/11/13 08:43:44;;;;;;;10.15;7.72;;;6.70;98.30;;;;;;5053432;28;20195;-67
2022/11/13 08:46:11;;;;;;;10.25;8.02;;;6.80;98.30;;;;;;5053105;28;20214;-67
2022/11/13 08:48:39;;;;;;;13.63;10.63;;;6.80;98.10;;;;;;5052758;28;20193;-68
2022/11/13 08:51:06;;;;;;;6.95;5.13;;;6.80;98.00;;;;;;5051849;28;20236;-68
2022/11/13 08:53:33;;;;;;;5.90;5.13;;;6.80;97.90;;;;;;5052210;28;20190;-67
2022/11/13 08:56:02;;;;;;;6.53;5.40;;;6.90;98.00;;;;;;5052549;28;20189;-67
2022/11/13 08:58:29;;;;;;;7.78;5.65;;;6.90;98.10;;;;;;5052469;28;20201;-67
2022/11/13 09:01:01;;;;;;;6.43;5.53;;;7.00;97.90;;;;;;5052303;28;20699;-68
2022/11/13 09:03:28;;;;;;;5.97;5.30;;;7.00;98.00;;;;;;5052207;28;20222;-67
2022/11/13 09:05:55;;;;;;;7.45;5.68;;;7.00;97.80;;;;;;5052167;28;20237;-67
2022/11/13 09:08:22;;;;;;;6.22;5.00;;;7.00;97.60;;;;;;5051911;28;20194;-67
2022/11/13 09:10:54;;;;;;;6.28;5.15;;;7.10;97.70;;;;;;5052390;28;20182;-69
2022/11/13 09:13:21;;;;;;;6.68;5.60;;;7.10;97.40;;;;;;5052364;28;20191;-68
2022/11/13 09:15:48;;;;;;;6.63;5.53;;;7.20;97.30;;;;;;5051933;28;20726;-68
2022/11/13 09:18:17;;;;;;;11.43;8.88;;;7.30;97.30;;;;;;5051879;28;20248;-68
2022/11/13 09:20:44;;;;;;;6.00;5.07;;;7.20;96.50;;;;;;5052252;28;20182;-67
2022/11/13 09:23:11;;;;;;;6.93;6.15;;;7.20;96.10;;;;;;5052339;28;20189;-67
2022/11/13 09:25:38;;;;;;;7.15;6.25;;;7.10;95.80;;;;;;5047422;28;20201;-68
2022/11/13 09:28:06;;;;;;;6.63;5.55;;;7.10;96.00;;;;;;5050989;28;20269;-67
2022/11/13 09:30:33;;;;;;;6.15;5.50;;;7.20;95.70;;;;;;5052067;28;20229;-68
2022/11/13 09:33:01;;;;;;;5.32;4.50;;;7.20;96.20;;;;;;5051064;28;20197;-68
2022/11/13 09:35:34;;;;;;;6.32;4.88;;;7.30;96.30;;;;;;5050532;28;20190;-67
2022/11/13 09:38:03;;;;;;;5.70;5.10;;;7.30;96.30;;;;;;5050540;28;20203;-69
2022/11/13 09:40:34;;;;;;;6.95;6.13;;;7.40;96.30;;;;;;5051426;28;20657;-68
2022/11/13 09:43:11;;;;;;;7.25;5.57;;;7.40;96.10;;;;;;5047385;28;20190;-67
2022/11/13 09:45:40;;;;;;;10.80;5.97;;;7.40;95.10;;;;;;5051000;28;20193;-67
2022/11/13 09:48:25;;;;;;;6.28;5.65;;;7.40;95.70;;;;;;5050649;28;20190;-67
2022/11/13 09:50:54;;;;;;;6.00;4.95;;;7.50;95.80;;;;;;5051367;28;20193;-67
2022/11/13 09:53:21;;;;;;;7.05;5.32;;;7.50;96.10;;;;;;5050774;28;20549;-67
2022/11/13 09:55:58;;;;;;;6.20;5.32;;;7.60;96.10;;;;;;5051313;28;20195;-68
2022/11/13 09:58:30;;;;;;;7.32;5.85;;;7.60;95.90;;;;;;5050535;28;20200;-67
2022/11/13 10:01:00;;;;;;;6.75;4.95;;;7.70;95.30;;;;;;5047203;28;20191;-67
2022/11/13 10:03:36;;;;;;;6.55;5.28;;;7.60;94.90;;;;;;5050977;28;20214;-67
2022/11/13 10:06:13;;;;;;;7.90;6.50;;;7.60;94.90;;;;;;5045359;28;20209;-67
2022/11/13 10:08:51;;;;;;;8.30;5.13;;;7.60;94.80;;;;;;5050610;28;20541;-67
2022/11/13 10:11:25;;;;;;;6.18;5.50;;;7.50;94.60;;;;;;5047860;28;20248;-68
2022/11/13 10:13:57;;;;;;;6.30;5.68;;;7.40;95.10;;;;;;5051278;28;20193;-67
2022/11/13 10:16:42;;;;;;;5.57;4.85;;;7.50;95.20;;;;;;5051171;28;20641;-68
2022/11/13 10:19:16;;;;;;;5.60;4.80;;;7.50;95.40;;;;;;5050458;28;20186;-67
2022/11/13 10:21:49;;;;;;;6.15;5.00;;;7.50;95.30;;;;;;5048095;28;20323;-67
2022/11/13 10:24:21;;;;;;;6.47;5.70;;;7.50;95.30;;;;;;5051025;28;20195;-67
2022/11/13 10:26:48;;;;;;;20.55;17.38;;;7.50;95.00;;;;;;5049915;28;20210;-67
2022/11/13 10:29:17;;;;;;;6.78;5.80;;;7.40;94.80;;;;;;5051098;28;20191;-67
2022/11/13 10:31:46;;;;;;;5.57;4.68;;;7.40;95.30;;;;;;5050495;28;20213;-67
2022/11/13 10:34:14;;;;;;;5.60;4.90;;;7.50;95.60;;;;;;5050169;28;20193;-67
2022/11/13 10:37:00;;;;;;;6.80;5.72;;;7.60;95.60;;;;;;5051052;28;20194;-67
2022/11/13 10:39:27;;;;;;;5.50;4.90;;;7.70;95.60;;;;;;5048666;28;20193;-67
2022/11/13 10:41:56;;;;;;;7.25;5.57;;;7.80;95.50;;;;;;5051262;28;20740;-67
2022/11/13 10:44:29;;;;;;;6.90;5.47;;;7.80;95.20;;;;;;5050436;28;20190;-67
2022/11/13 10:47:13;;;;;;;9.93;5.30;;;7.90;95.10;;;;;;5046141;28;20685;-68
2022/11/13 10:49:40;;;;;;;8.10;5.97;;;7.90;94.90;;;;;;5049832;28;21019;-68
2022/11/13 10:52:20;;;;;;;7.63;6.25;;;8.00;94.90;;;;;;5046243;28;20205;-67
2022/11/13 10:54:48;;;;;;;7.35;6.55;;;8.00;94.30;;;;;;5050723;28;20194;-67
2022/11/13 10:57:25;;;;;;;5.40;4.78;;;7.90;94.10;;;;;;5049935;28;20210;-68
2022/11/13 10:59:54;;;;;;;6.55;5.28;;;7.90;93.80;;;;;;5051125;28;20233;-68
2022/11/13 11:02:23;;;;;;;5.97;5.15;;;7.90;94.00;;;;;;5049713;28;20190;-66
2022/11/13 11:05:00;;;;;;;5.72;5.07;;;7.80;93.70;;;;;;5050872;28;20226;-66
2022/11/13 11:07:34;;;;;;;6.13;5.45;;;7.80;93.90;;;;;;5050496;28;20214;-66
2022/11/13 11:10:01;;;;;;;5.95;4.90;;;7.70;94.00;;;;;;5045937;28;20182;-66
2022/11/13 11:12:28;;;;;;;6.70;5.40;;;7.60;94.30;;;;;;5049635;28;20194;-66
2022/11/13 11:15:20;;;;;;;6.57;5.50;;;7.60;94.20;;;;;;5049182;28;20182;-66
2022/11/13 11:17:50;;;;;;;6.13;5.53;;;7.50;94.40;;;;;;5048833;28;20202;-66
2022/11/13 11:20:26;;;;;;;10.35;8.25;;;7.50;94.80;;;;;;5047712;28;20182;-66
2022/11/13 11:22:59;;;;;;;9.93;8.27;;;7.50;95.20;;;;;;5050483;28;20218;-66
2022/11/13 11:25:43;;;;;;;6.85;5.63;;;7.60;95.10;;;;;;5050309;28;20194;-67
2022/11/13 11:28:17;;;;;;;8.13;6.53;;;7.70;95.40;;;;;;5050462;28;20641;-66
2022/11/13 11:30:52;;;;;;;6.35;5.43;;;7.80;95.50;;;;;;5047077;28;20641;-67
2022/11/13 11:33:25;;;;;;;6.85;5.70;;;7.80;94.90;;;;;;5050370;28;20263;-67
2022/11/13 11:35:58;;;;;;;6.55;5.95;;;7.90;94.70;;;;;;5049318;28;20649;-67
2022/11/13 11:38:33;;;;;;;8.88;7.68;;;7.80;94.70;;;;;;5050191;28;20186;-67
2022/11/13 11:41:08;;;;;;;10.20;8.90;;;7.80;94.50;;;;;;5049448;28;20711;-67
2022/11/13 11:43:43;;;;;;;7.57;6.70;;;7.80;94.70;;;;;;5049148;28;20648;-67
2022/11/13 11:46:21;;;;;;;7.05;6.20;;;7.80;94.50;;;;;;5047743;28;20245;-67
2022/11/13 11:48:50;;;;;;;8.88;7.22;;;7.80;94.50;;;;;;5047772;28;20221;-68
2022/11/13 11:51:25;;;;;;;8.05;6.88;;;7.80;94.80;;;;;;5050076;28;20595;-68
2022/11/13 11:54:06;;;;;;;7.75;7.03;;;7.80;94.90;;;;;;5049326;28;20195;-67
2022/11/13 11:59:35;;;;;;;8.07;7.25;;;7.90;94.80;;;;;;5054533;28;20198;-67
2022/11/13 12:02:35;;;;;;;8.25;6.82;;;8.00;94.60;;;;;;5055628;28;20261;-67
2022/11/13 12:05:22;;;;;;;7.85;7.05;;;8.00;94.50;;;;;;5049208;28;20292;-67
2022/11/13 12:08:03;;;;;;;8.40;7.32;;;8.10;94.50;;;;;;5055069;28;20589;-67
2022/11/13 12:10:42;;;;;;;9.95;8.65;;;8.00;93.70;;;;;;5056033;28;20248;-66
2022/11/13 12:13:20;;;;;;;13.18;10.20;;;8.00;93.90;;;;;;5056198;28;20197;-67
2022/11/13 12:15:57;;;;;;;12.90;9.15;;;8.00;93.60;;;;;;5056084;28;20190;-66
2022/11/13 12:18:37;;;;;;;11.13;9.00;;;8.00;93.70;;;;;;5055826;28;20230;-66
2022/11/13 12:21:18;;;;;;;11.98;8.95;;;8.00;93.80;;;;;;5056002;28;20201;-66
2022/11/13 12:24:00;;;;;;;9.25;6.93;;;8.00;93.90;;;;;;5055850;28;20182;-66
2022/11/13 12:26:32;;;;;;;9.77;7.93;;;8.10;93.90;;;;;;5055917;28;20194;-66
2022/11/13 12:29:08;;;;;;;8.02;7.22;;;8.10;93.90;;;;;;5055678;28;20632;-66
2022/11/13 12:31:47;;;;;;;8.73;7.65;;;8.20;94.00;;;;;;5055937;28;20201;-66
2022/11/13 12:34:21;;;;;;;9.45;8.55;;;8.20;93.90;;;;;;5055932;28;20194;-66
2022/11/13 12:36:49;;;;;;;10.57;8.90;;;8.10;93.60;;;;;;5055785;28;20205;-67
2022/11/13 12:39:42;;;;;;;9.63;8.73;;;8.10;93.60;;;;;;5055591;28;20190;-66
2022/11/13 12:42:20;;;;;;;8.77;7.88;;;8.10;93.60;;;;;;5055596;28;20513;-66
2022/11/13 12:44:54;;;;;;;8.63;7.75;;;8.10;94.00;;;;;;5055867;28;20194;-67
2022/11/13 12:47:21;;;;;;;9.70;8.60;;;8.00;93.90;;;;;;5055031;28;20247;-67
2022/11/13 12:50:00;;;;;;;8.90;8.02;;;8.00;94.50;;;;;;5055234;28;20272;-67
2022/11/13 12:52:27;;;;;;;8.18;7.20;;;8.10;94.40;;;;;;5055361;28;20197;-66
2022/11/13 12:55:04;;;;;;;8.00;7.03;;;8.00;94.00;;;;;;5055302;28;20707;-66
2022/11/13 12:57:33;;;;;;;9.45;8.27;;;8.00;94.40;;;;;;5055346;28;20194;-66
2022/11/13 13:00:21;;;;;;;6.88;6.18;;;7.90;94.20;;;;;;5055019;28;20187;-66
2022/11/13 13:03:02;;;;;;;9.25;7.20;;;7.90;94.40;;;;;;5054964;28;20187;-66
2022/11/13 13:05:53;;;;;;;10.02;9.02;;;7.90;94.60;;;;;;5055030;28;20645;-66
2022/11/13 13:08:44;;;;;;;8.20;7.35;;;7.90;94.40;;;;;;5055154;28;20218;-66
2022/11/13 13:11:19;;;;;;;7.75;6.57;;;7.70;94.30;;;;;;5054637;28;20191;-66
2022/11/13 13:13:58;;;;;;;6.30;5.47;;;7.60;93.70;;;;;;5054812;28;20652;-66